Time;durP1;ratioP1;P1;durP2;ratioP2;P2;SDS_P1;SDS_P2;PMS_P1;PMS_P2;Temp;Humidity;BMP_temperature;BMP_pressure;BME280_temperature;BME280_humidity;BME280_pressure;Samples;Min_cycle;Max_cycle;Signal;HPM_P1;HPM_P2
2021/08/18 02:37:25;;;;;;;20.30;9.35;;;8.80;99.90;;;;;;6366199;22;20364;-91
2021/08/18 02:53:06;;;;;;;23.77;11.23;;;8.90;99.90;;;;;;6343111;22;21366;-94
2021/08/18 02:59:52;;;;;;;27.45;12.98;;;8.80;99.90;;;;;;6377978;22;20816;-91
2021/08/18 03:06:30;;;;;;;29.92;14.65;;;8.90;99.90;;;;;;6363568;22;20386;-93
2021/08/18 03:48:45;;;;;;;74.05;32.88;;;8.90;99.90;;;;;;6367076;22;20391;-93
2021/08/18 06:06:20;;;;;;;37.92;15.50;;;9.30;99.90;;;;;;6379048;22;20394;-96
2021/08/18 06:09:14;;;;;;;44.78;15.70;;;9.20;99.90;;;;;;6346576;22;20386;-94
2021/08/18 06:11:58;;;;;;;47.13;18.23;;;9.30;99.90;;;;;;6360802;22;20461;-95
2021/08/18 06:15:09;;;;;;;51.15;19.08;;;9.40;99.90;;;;;;6369178;22;20847;-95
2021/08/18 07:12:30;;;;;;;1999.90;130.90;;;9.40;99.90;;;;;;6358002;22;20405;-93
2021/08/18 07:15:01;;;;;;;1999.90;131.07;;;9.40;99.90;;;;;;6315039;22;20405;-92
2021/08/18 07:17:28;;;;;;;1999.90;155.43;;;9.50;99.90;;;;;;6315448;22;20423;-93
2021/08/18 07:20:02;;;;;;;1999.90;190.27;;;9.50;99.90;;;;;;6341432;22;20392;-93
2021/08/18 07:22:30;;;;;;;1999.90;121.82;;;9.50;99.90;;;;;;6316410;22;20377;-93
2021/08/18 07:24:57;;;;;;;1999.90;176.43;;;9.50;99.90;;;;;;6314162;22;20980;-94
2021/08/18 07:27:27;;;;;;;1780.22;109.72;;;9.50;99.90;;;;;;6314470;22;20487;-94
2021/08/18 07:30:00;;;;;;;1999.90;154.47;;;9.50;99.90;;;;;;6341408;22;20428;-95
2021/08/18 07:32:37;;;;;;;1999.90;133.18;;;9.70;99.90;;;;;;6327756;22;20372;-93
2021/08/18 07:35:08;;;;;;;1790.07;107.82;;;9.70;99.90;;;;;;6329181;22;20440;-94
2021/08/18 07:37:38;;;;;;;1999.90;138.93;;;9.80;99.90;;;;;;6358528;22;20367;-94
2021/08/18 07:40:13;;;;;;;1999.90;167.85;;;9.70;99.90;;;;;;6352269;22;20474;-95
2021/08/18 07:42:44;;;;;;;1999.90;146.32;;;9.80;99.90;;;;;;6354704;22;20399;-94
2021/08/18 07:45:13;;;;;;;469.33;39.33;;;9.80;99.90;;;;;;6358670;22;20869;-94
2021/08/18 07:47:45;;;;;;;1999.90;158.10;;;9.80;99.90;;;;;;6358645;22;20395;-95
2021/08/18 07:50:13;;;;;;;1999.90;164.10;;;9.80;99.90;;;;;;6356039;22;20387;-93
2021/08/18 07:52:40;;;;;;;1999.90;124.20;;;9.80;99.90;;;;;;6360920;22;20359;-93
2021/08/18 07:55:33;;;;;;;1999.90;108.40;;;9.90;99.90;;;;;;6358369;22;20423;31
2021/08/18 07:58:04;;;;;;;1999.90;152.67;;;9.90;99.90;;;;;;6348065;22;20439;-92
2021/08/18 08:00:37;;;;;;;1999.90;114.17;;;10.00;99.90;;;;;;6362575;22;20383;-94
2021/08/18 08:03:10;;;;;;;1999.90;102.05;;;10.00;99.90;;;;;;6374862;22;20416;-95
2021/08/18 08:05:46;;;;;;;1999.90;114.23;;;10.00;99.90;;;;;;6357327;22;20462;-95
2021/08/18 08:08:22;;;;;;;656.65;47.28;;;10.10;99.90;;;;;;6356400;22;20471;-94
2021/08/18 08:10:52;;;;;;;1999.90;136.55;;;10.10;99.90;;;;;;6359682;22;20384;-95
2021/08/18 08:13:42;;;;;;;1999.90;118.18;;;10.10;99.90;;;;;;6355778;22;20370;-96
2021/08/18 08:16:16;;;;;;;1999.90;127.70;;;10.20;99.90;;;;;;6358738;22;20418;-95
2021/08/18 08:18:46;;;;;;;1999.90;107.50;;;10.20;99.90;;;;;;6357358;22;20937;-95
2021/08/18 08:21:26;;;;;;;1999.90;139.77;;;10.20;99.90;;;;;;6353747;22;20395;-95
2021/08/18 08:24:20;;;;;;;1631.78;97.32;;;10.20;99.90;;;;;;6320868;22;20435;-94
2021/08/18 08:26:57;;;;;;;1999.90;157.27;;;10.20;99.90;;;;;;6361690;22;20411;-95
2021/08/18 08:31:55;;;;;;;1999.90;138.02;;;10.20;99.90;;;;;;6371852;22;20387;-95
2021/08/18 08:34:23;;;;;;;1398.68;79.63;;;10.30;99.90;;;;;;6352994;22;20387;-93
2021/08/18 08:36:50;;;;;;;1459.35;91.65;;;10.30;99.90;;;;;;6362876;22;20402;-95
2021/08/18 08:39:17;;;;;;;495.23;45.63;;;10.30;99.90;;;;;;6354691;22;20376;-94
2021/08/18 08:44:40;;;;;;;1999.90;121.22;;;10.40;99.90;;;;;;6377688;22;20387;-96
2021/08/18 08:47:43;;;;;;;1873.47;107.28;;;10.40;99.90;;;;;;6354576;22;20484;-95
2021/08/18 08:55:54;;;;;;;178.10;32.80;;;10.40;99.90;;;;;;6375571;22;20704;-96
2021/08/18 09:11:39;;;;;;;52.13;20.25;;;10.60;99.90;;;;;;6339211;22;20471;31
2021/08/18 09:23:27;;;;;;;97.73;26.00;;;10.80;99.90;;;;;;6339771;22;20400;-95
2021/08/18 09:26:38;;;;;;;87.75;25.52;;;10.80;99.90;;;;;;6328505;22;20385;-96
2021/08/18 09:32:37;;;;;;;110.03;27.08;;;10.60;99.90;;;;;;6350801;22;20400;-95
2021/08/18 09:45:46;;;;;;;150.93;33.67;;;10.80;99.90;;;;;;6307073;22;20777;-95
2021/08/18 10:10:33;;;;;;;26.38;12.40;;;11.80;99.90;;;;;;6374330;22;20383;-94
2021/08/18 10:19:27;;;;;;;21.43;11.23;;;12.10;99.90;;;;;;6333235;22;20415;-95
2021/08/18 10:25:58;;;;;;;23.92;11.05;;;12.20;99.90;;;;;;6272278;22;20415;-96
2021/08/18 10:29:16;;;;;;;24.42;10.80;;;12.20;99.90;;;;;;6186231;23;20400;-94
2021/08/18 10:32:35;;;;;;;29.90;12.13;;;12.10;99.90;;;;;;6156618;23;20387;-94
2021/08/18 10:35:34;;;;;;;23.17;12.38;;;12.00;99.90;;;;;;6158595;23;20449;-96
2021/08/18 10:38:44;;;;;;;24.55;12.73;;;11.90;99.90;;;;;;6130601;23;20391;-94
2021/08/18 10:42:13;;;;;;;29.05;13.68;;;11.80;99.90;;;;;;6132800;23;20483;-93
2021/08/18 10:45:15;;;;;;;27.13;12.77;;;11.80;99.90;;;;;;6066136;23;20503;-93
2021/08/18 10:47:51;;;;;;;26.67;13.23;;;12.00;99.90;;;;;;6042773;23;20424;-95
2021/08/18 10:50:50;;;;;;;27.48;12.05;;;12.60;99.90;;;;;;6065645;23;20463;-95
2021/08/18 10:53:31;;;;;;;22.13;9.83;;;13.20;99.90;;;;;;6069673;23;20475;-96
2021/08/18 10:56:44;;;;;;;21.13;10.77;;;13.40;99.90;;;;;;6067376;23;20419;-94
2021/08/18 10:59:38;;;;;;;16.73;9.33;;;13.50;99.90;;;;;;6066744;23;20404;-94
2021/08/18 11:02:12;;;;;;;17.80;9.43;;;13.30;99.90;;;;;;6090946;23;20393;-94
2021/08/18 11:04:49;;;;;;;20.67;10.07;;;13.00;99.90;;;;;;6116257;23;20403;-95
2021/08/18 11:07:50;;;;;;;21.67;10.52;;;12.80;99.90;;;;;;6191830;23;20392;-95
2021/08/18 11:10:32;;;;;;;22.27;9.88;;;12.80;99.90;;;;;;6192390;23;20388;-95
2021/08/18 11:13:07;;;;;;;22.23;10.00;;;12.80;99.90;;;;;;6239575;22;20428;-94
2021/08/18 11:15:46;;;;;;;24.08;11.60;;;12.80;99.90;;;;;;6377571;22;20373;-96
2021/08/18 11:18:19;;;;;;;27.30;12.95;;;12.60;99.90;;;;;;6379541;22;20415;-95
2021/08/18 11:20:51;;;;;;;26.17;12.33;;;12.60;99.90;;;;;;6378933;22;20377;-96
2021/08/18 11:23:25;;;;;;;29.67;13.75;;;12.50;99.90;;;;;;6376975;22;20757;-93
2021/08/18 11:25:57;;;;;;;27.15;13.07;;;12.50;99.90;;;;;;6376141;22;20393;-95
2021/08/18 11:28:28;;;;;;;27.73;11.77;;;12.60;99.90;;;;;;6376172;22;20393;-94
2021/08/18 11:31:18;;;;;;;23.95;11.18;;;12.70;99.90;;;;;;6384741;22;20384;-96
2021/08/18 11:34:19;;;;;;;24.85;11.02;;;13.00;99.90;;;;;;6239046;22;20397;-96
2021/08/18 11:37:33;;;;;;;;;;;;;;;;;;;;;
2021/08/18 11:40:42;;;;;;;18.50;9.65;;;13.30;99.90;;;;;;6229905;23;20698;-95
2021/08/18 11:43:13;;;;;;;18.95;9.02;;;13.60;99.90;;;;;;6220220;23;20516;-94
2021/08/18 11:45:50;;;;;;;17.42;8.95;;;13.70;99.90;;;;;;6224370;23;20406;-95
2021/08/18 11:51:55;;;;;;;18.00;9.50;;;13.60;99.90;;;;;;6241985;23;20477;-93
2021/08/18 11:54:33;;;;;;;22.05;9.65;;;13.50;99.90;;;;;;6225237;23;20390;-95
2021/08/18 11:57:03;;;;;;;19.88;9.80;;;13.20;99.90;;;;;;6228263;23;20370;-96
2021/08/18 11:59:36;;;;;;;18.15;9.45;;;13.10;99.90;;;;;;6248179;23;20428;-95
2021/08/18 12:02:03;;;;;;;17.38;9.48;;;13.10;99.90;;;;;;6223082;23;20382;-94
2021/08/18 12:04:44;;;;;;;21.30;10.25;;;13.00;99.90;;;;;;6324372;22;20374;-96
2021/08/18 12:07:17;;;;;;;22.70;10.15;;;13.10;99.90;;;;;;6380952;22;20401;-95
2021/08/18 12:10:07;;;;;;;19.37;9.60;;;13.30;99.90;;;;;;6379173;22;20373;-95
2021/08/18 12:12:34;;;;;;;20.73;10.10;;;13.50;99.90;;;;;;6379383;22;20838;-95
2021/08/18 12:15:54;;;;;;;20.02;9.65;;;13.60;99.90;;;;;;6373344;22;20375;-95
2021/08/18 12:18:38;;;;;;;24.10;11.70;;;13.50;99.90;;;;;;6229865;23;20386;-95
2021/08/18 12:22:08;;;;;;;29.33;13.73;;;13.40;99.90;;;;;;6234981;23;20382;-96
2021/08/18 12:33:31;;;;;;;131.10;33.83;;;11.90;99.90;;;;;;6349628;22;20475;-96
2021/08/18 12:36:13;;;;;;;155.93;36.67;;;11.80;99.90;;;;;;6321912;22;20385;-95
2021/08/18 12:38:53;;;;;;;126.50;33.60;;;11.90;99.90;;;;;;6323516;22;20361;-96
2021/08/18 12:41:25;;;;;;;119.80;33.75;;;11.90;99.90;;;;;;6319439;22;20439;-95
2021/08/18 12:44:07;;;;;;;130.05;33.38;;;12.00;99.90;;;;;;6318616;22;20388;-94
2021/08/18 12:46:36;;;;;;;157.88;35.97;;;12.00;99.90;;;;;;6315221;22;20950;-96
2021/08/18 12:49:29;;;;;;;149.55;34.70;;;12.00;99.90;;;;;;6320718;22;20377;-95
2021/08/18 12:52:07;;;;;;;151.43;34.38;;;12.10;99.90;;;;;;6323107;22;20413;-96
2021/08/18 12:54:43;;;;;;;101.57;29.65;;;12.20;99.90;;;;;;6325089;22;20452;-94
2021/08/18 12:57:13;;;;;;;80.05;24.75;;;12.20;99.90;;;;;;6320393;22;20369;-95
2021/08/18 13:02:54;;;;;;;72.85;22.27;;;12.30;99.90;;;;;;6287699;22;20374;-95
2021/08/18 13:09:03;;;;;;;58.00;20.35;;;12.20;99.90;;;;;;6381768;22;20390;-96
2021/08/18 13:22:37;;;;;;;41.40;15.57;;;12.60;99.90;;;;;;6357390;22;20382;-95
2021/08/18 13:25:55;;;;;;;40.40;15.68;;;12.70;99.90;;;;;;6332020;22;20388;-95
2021/08/18 13:29:31;;;;;;;34.40;14.57;;;13.00;99.90;;;;;;6330485;22;20442;-93
2021/08/18 13:41:47;;;;;;;31.38;12.13;;;13.40;99.90;;;;;;6345351;22;20395;-94
2021/08/18 13:45:02;;;;;;;32.40;13.45;;;13.40;99.90;;;;;;6331542;22;20396;-94
2021/08/18 13:48:31;;;;;;;28.98;13.70;;;13.40;99.90;;;;;;6269089;22;20379;-94
2021/08/18 13:57:10;;;;;;;28.15;12.18;;;13.20;99.90;;;;;;6342629;22;20381;-95
2021/08/18 14:04:02;;;;;;;29.35;13.27;;;13.50;99.90;;;;;;6375031;22;20796;-95
2021/08/18 14:06:54;;;;;;;29.05;13.98;;;13.70;99.90;;;;;;6299903;22;20406;-95
2021/08/18 14:09:56;;;;;;;30.88;14.30;;;13.90;99.90;;;;;;6302717;22;20464;-94
2021/08/18 14:13:02;;;;;;;30.83;14.07;;;14.00;99.90;;;;;;6239224;22;20386;-94
2021/08/18 14:15:56;;;;;;;27.27;13.00;;;14.10;99.90;;;;;;6255893;23;20353;-96
2021/08/18 14:18:43;;;;;;;25.63;12.85;;;14.10;99.90;;;;;;6206924;23;20362;-96
2021/08/18 14:21:16;;;;;;;26.93;12.77;;;14.00;99.90;;;;;;6241994;22;20378;-95
2021/08/18 14:24:28;;;;;;;27.92;13.20;;;13.90;99.90;;;;;;6233931;23;20378;-96
2021/08/18 14:27:02;;;;;;;30.00;14.37;;;13.90;99.90;;;;;;6235321;23;20377;-94
2021/08/18 14:29:32;;;;;;;33.47;14.83;;;13.70;99.90;;;;;;6129676;23;20898;-94
2021/08/18 14:32:29;;;;;;;30.48;14.57;;;13.70;99.90;;;;;;6195789;23;20409;-96
2021/08/18 14:35:04;;;;;;;30.88;14.35;;;13.60;99.90;;;;;;6173187;23;20438;-93
2021/08/18 14:37:35;;;;;;;31.92;14.45;;;13.70;99.90;;;;;;6159826;23;20691;-94
2021/08/18 14:40:05;;;;;;;33.53;15.17;;;13.80;99.90;;;;;;6138001;23;20775;-96
2021/08/18 14:42:35;;;;;;;26.55;13.57;;;13.80;99.90;;;;;;6160653;23;20393;-95
2021/08/18 14:45:03;;;;;;;27.98;13.73;;;13.90;99.90;;;;;;6221091;23;20409;-96
2021/08/18 14:47:45;;;;;;;29.17;14.05;;;13.90;99.90;;;;;;6219537;23;20386;-96
2021/08/18 14:50:15;;;;;;;28.63;13.30;;;13.90;99.90;;;;;;6243896;22;20390;-96
2021/08/18 14:52:43;;;;;;;30.95;13.60;;;13.80;99.90;;;;;;6287007;22;20374;-96
2021/08/18 14:55:13;;;;;;;28.20;13.23;;;14.00;99.90;;;;;;6306543;22;20389;-91
2021/08/18 14:57:41;;;;;;;28.17;13.10;;;14.00;99.90;;;;;;6326234;22;20390;-94
2021/08/18 15:00:11;;;;;;;26.60;13.02;;;14.10;99.90;;;;;;6291182;22;20378;-94
2021/08/18 15:02:39;;;;;;;27.10;12.93;;;14.20;99.90;;;;;;6304716;22;20406;-94
2021/08/18 15:05:08;;;;;;;28.03;12.60;;;14.30;99.90;;;;;;6305264;22;20393;-94
2021/08/18 15:07:40;;;;;;;28.15;13.35;;;14.40;99.90;;;;;;6307897;22;20390;-95
2021/08/18 15:10:07;;;;;;;30.83;14.32;;;14.30;99.90;;;;;;6336773;22;20456;-94
2021/08/18 15:12:35;;;;;;;31.55;14.25;;;14.30;99.90;;;;;;6344395;22;20383;-95
2021/08/18 15:15:04;;;;;;;29.88;14.35;;;14.20;99.90;;;;;;6345108;22;20458;-94
2021/08/18 15:17:32;;;;;;;29.02;14.52;;;14.10;99.90;;;;;;6344454;22;20470;-94
2021/08/18 15:20:00;;;;;;;30.15;14.55;;;14.00;99.90;;;;;;6348419;22;20446;-94
2021/08/18 15:22:27;;;;;;;34.70;14.93;;;13.90;99.90;;;;;;6345614;22;20437;-95
2021/08/18 15:24:54;;;;;;;31.70;15.40;;;13.80;99.90;;;;;;6344855;22;20462;-94
2021/08/18 15:27:22;;;;;;;32.42;14.63;;;13.80;99.90;;;;;;6344877;22;20473;-94
2021/08/18 15:29:50;;;;;;;31.67;15.57;;;13.70;99.90;;;;;;6345291;22;20375;-93
2021/08/18 15:32:20;;;;;;;35.30;15.88;;;13.60;99.90;;;;;;6346008;22;20367;-92
2021/08/18 15:34:51;;;;;;;33.87;14.87;;;13.60;99.90;;;;;;6345291;22;20395;-96
2021/08/18 15:37:19;;;;;;;33.25;15.75;;;13.70;99.90;;;;;;6344500;22;20382;-95
2021/08/18 15:39:47;;;;;;;31.88;15.90;;;13.70;99.90;;;;;;6344928;22;20494;-95
2021/08/18 15:42:15;;;;;;;33.20;14.98;;;13.70;99.90;;;;;;6344748;22;20863;-94
2021/08/18 15:44:43;;;;;;;35.05;15.65;;;13.80;99.90;;;;;;6344378;22;20462;-95
2021/08/18 15:47:12;;;;;;;33.20;15.63;;;13.80;99.90;;;;;;6344004;22;20423;-94
2021/08/18 15:49:43;;;;;;;32.28;15.68;;;13.80;99.90;;;;;;6344176;22;20863;-96
2021/08/18 15:52:12;;;;;;;32.20;15.23;;;13.90;99.90;;;;;;6345333;22;20390;-95
2021/08/18 15:54:43;;;;;;;32.42;15.18;;;14.10;99.90;;;;;;6344647;22;20390;-94
2021/08/18 15:57:11;;;;;;;26.08;13.70;;;14.50;99.90;;;;;;6344502;22;20455;-96
2021/08/18 15:59:42;;;;;;;31.80;14.18;;;15.50;99.90;;;;;;6343522;22;20735;-94
2021/08/18 16:02:09;;;;;;;28.52;13.90;;;15.80;99.90;;;;;;6345228;22;20375;-95
2021/08/18 16:04:37;;;;;;;24.50;13.50;;;15.80;99.90;;;;;;6344279;22;20380;-95
2021/08/18 16:07:05;;;;;;;22.83;13.50;;;16.10;99.90;;;;;;6343831;22;20414;-95
2021/08/18 16:09:36;;;;;;;23.90;12.55;;;16.90;99.90;;;;;;6346275;22;20387;-96
2021/08/18 16:12:03;;;;;;;22.02;12.27;;;17.70;99.90;;;;;;6342900;22;20380;-95
2021/08/18 16:14:31;;;;;;;25.25;13.05;;;17.80;99.90;;;;;;6343921;22;20395;-95
2021/08/18 16:16:58;;;;;;;23.75;13.35;;;17.70;99.90;;;;;;6343561;22;20456;-95
2021/08/18 16:19:26;;;;;;;25.15;13.93;;;17.10;99.90;;;;;;6345115;22;20394;-95
2021/08/18 16:21:53;;;;;;;27.67;14.30;;;16.40;99.90;;;;;;6343890;22;20386;-96
2021/08/18 16:24:20;;;;;;;28.13;14.15;;;15.50;99.90;;;;;;6344037;22;20467;-96
2021/08/18 16:26:49;;;;;;;29.83;15.00;;;15.00;99.90;;;;;;6343951;22;20391;-94
2021/08/18 16:29:17;;;;;;;29.50;15.02;;;14.60;99.90;;;;;;6342722;22;20862;-93
2021/08/18 16:31:49;;;;;;;25.27;13.37;;;14.40;99.90;;;;;;6343553;22;20465;-95
2021/08/18 16:34:20;;;;;;;30.40;14.63;;;14.30;99.90;;;;;;6346026;22;20380;-94
2021/08/18 16:36:48;;;;;;;28.55;14.32;;;14.30;99.90;;;;;;6344210;22;20376;-94
2021/08/18 16:39:16;;;;;;;32.20;14.83;;;14.20;99.90;;;;;;6358535;22;20442;-94
2021/08/18 16:41:44;;;;;;;32.42;15.38;;;14.20;99.90;;;;;;6358469;22;20379;-94
2021/08/18 16:44:12;;;;;;;29.73;14.75;;;14.20;99.90;;;;;;6345117;22;20379;-96
2021/08/18 16:46:42;;;;;;;30.48;15.10;;;14.10;99.90;;;;;;6343595;22;20391;-95
2021/08/18 16:49:09;;;;;;;30.17;14.83;;;14.00;99.90;;;;;;6343759;22;20395;-94
2021/08/18 16:51:36;;;;;;;32.13;15.27;;;14.00;99.90;;;;;;6343885;22;20407;-95
2021/08/18 16:54:03;;;;;;;34.25;15.40;;;14.00;99.90;;;;;;6343656;22;20386;-95
2021/08/18 16:56:31;;;;;;;33.95;14.60;;;14.00;99.90;;;;;;6344678;22;20746;-95
2021/08/18 16:58:59;;;;;;;38.40;16.15;;;14.00;99.90;;;;;;6344512;22;20379;-94
2021/08/18 17:01:29;;;;;;;31.52;15.27;;;14.00;99.90;;;;;;6344783;22;20379;-93
2021/08/18 17:03:57;;;;;;;32.50;15.07;;;13.90;99.90;;;;;;6344156;22;20801;-94
2021/08/18 17:06:24;;;;;;;32.08;14.45;;;13.90;99.90;;;;;;6344428;22;20426;-95
2021/08/18 17:08:51;;;;;;;34.13;15.27;;;13.90;99.90;;;;;;6344232;22;20380;-96
2021/08/18 17:11:18;;;;;;;30.98;14.35;;;13.80;99.90;;;;;;6343803;22;20471;-95
2021/08/18 17:13:45;;;;;;;33.83;15.18;;;13.80;99.90;;;;;;6344769;22;20383;-94
2021/08/18 17:16:12;;;;;;;32.08;14.30;;;13.80;99.90;;;;;;6345186;22;20380;-96
2021/08/18 17:18:40;;;;;;;30.38;14.25;;;13.70;99.90;;;;;;6345017;22;20386;-95
2021/08/18 17:21:07;;;;;;;32.28;14.40;;;13.80;99.90;;;;;;6344086;22;20383;-96
2021/08/18 17:23:36;;;;;;;28.55;14.20;;;13.70;99.90;;;;;;6343616;22;20379;-93
2021/08/18 17:26:04;;;;;;;33.15;14.88;;;13.80;99.90;;;;;;6343556;22;20383;-93
2021/08/18 17:28:37;;;;;;;30.95;15.57;;;13.70;99.90;;;;;;6342775;22;20378;-95
2021/08/18 17:31:04;;;;;;;30.33;14.68;;;13.70;99.90;;;;;;6343457;22;20375;-96
2021/08/18 17:33:32;;;;;;;34.10;15.15;;;13.60;99.90;;;;;;6343952;22;20863;-94
2021/08/18 17:36:00;;;;;;;35.08;15.35;;;13.50;99.90;;;;;;6344574;22;20677;-93
2021/08/18 17:38:27;;;;;;;34.92;15.55;;;13.60;99.90;;;;;;6344118;22;20458;-93
2021/08/18 17:40:54;;;;;;;33.30;15.15;;;13.50;99.90;;;;;;6344065;22;20482;-96
2021/08/18 17:43:22;;;;;;;29.93;14.03;;;13.50;99.90;;;;;;6344060;22;20375;-92
2021/08/18 17:45:51;;;;;;;32.08;15.25;;;13.50;99.90;;;;;;6343150;22;20383;-94
2021/08/18 17:48:19;;;;;;;33.25;14.60;;;13.60;99.90;;;;;;6344457;22;20382;-93
2021/08/18 17:50:47;;;;;;;30.52;14.57;;;13.70;99.90;;;;;;6343756;22;20389;-93
2021/08/18 17:53:14;;;;;;;32.75;14.77;;;13.70;99.90;;;;;;6343811;22;20470;-96
2021/08/18 17:55:42;;;;;;;33.22;14.75;;;13.60;99.90;;;;;;6344125;22;20915;-96
2021/08/18 17:58:09;;;;;;;35.80;14.98;;;13.50;99.90;;;;;;6343167;22;20390;-94
2021/08/18 18:00:37;;;;;;;33.75;14.55;;;13.40;99.90;;;;;;6343731;22;20459;-93
2021/08/18 18:03:06;;;;;;;34.40;14.18;;;13.30;99.90;;;;;;6343936;22;20387;-93
2021/08/18 18:05:35;;;;;;;33.15;14.85;;;13.20;99.90;;;;;;6344677;22;20383;-95
2021/08/18 18:08:07;;;;;;;36.08;15.07;;;13.10;99.90;;;;;;6345765;22;20392;-96
2021/08/18 18:10:35;;;;;;;41.08;15.88;;;12.90;99.90;;;;;;6344561;22;20458;-96
2021/08/18 18:13:02;;;;;;;41.28;15.63;;;12.80;99.90;;;;;;6343761;22;20389;-95
2021/08/18 18:15:31;;;;;;;38.47;14.93;;;12.80;99.90;;;;;;6344654;22;20736;-95
2021/08/18 18:17:58;;;;;;;44.00;16.35;;;12.70;99.90;;;;;;6343520;22;20469;-94
2021/08/18 18:20:25;;;;;;;45.05;16.58;;;12.80;99.90;;;;;;6345552;22;20379;-96
2021/08/18 18:22:52;;;;;;;54.20;18.63;;;12.70;99.90;;;;;;6367599;22;20366;-94
2021/08/18 18:25:20;;;;;;;51.75;17.55;;;12.80;99.90;;;;;;6345932;22;20414;-94
2021/08/18 18:27:47;;;;;;;57.72;19.48;;;12.70;99.90;;;;;;6343780;22;20421;-95
2021/08/18 18:30:15;;;;;;;43.67;16.25;;;12.80;99.90;;;;;;6343444;22;20399;-95
2021/08/18 18:32:42;;;;;;;44.85;17.65;;;12.80;99.90;;;;;;6343317;22;20379;-94
2021/08/18 18:35:11;;;;;;;43.47;16.42;;;12.90;99.90;;;;;;6343169;22;20843;-95
2021/08/18 18:37:42;;;;;;;47.13;17.60;;;12.90;99.90;;;;;;6342872;22;20386;-94
2021/08/18 18:40:12;;;;;;;47.95;16.40;;;12.60;99.90;;;;;;6342911;22;20375;-95
2021/08/18 18:42:40;;;;;;;72.90;19.25;;;12.40;99.90;;;;;;6342592;22;20462;-95
2021/08/18 18:45:08;;;;;;;75.07;20.50;;;12.20;99.90;;;;;;6343475;22;20756;-93
2021/08/18 18:47:35;;;;;;;65.97;18.80;;;12.10;99.90;;;;;;6344142;22;20889;-94
2021/08/18 18:50:04;;;;;;;80.43;20.27;;;12.20;99.90;;;;;;6343860;22;20379;-93
2021/08/18 18:52:31;;;;;;;74.30;18.55;;;12.10;99.90;;;;;;6344276;22;20441;-93
2021/08/18 18:54:58;;;;;;;82.72;20.75;;;12.00;99.90;;;;;;6344265;22;20406;-94
2021/08/18 18:57:25;;;;;;;99.05;23.25;;;12.10;99.90;;;;;;6343294;22;20379;-95
2021/08/18 18:59:52;;;;;;;94.85;24.67;;;12.20;99.90;;;;;;6343701;22;20381;-93
2021/08/18 19:02:20;;;;;;;73.25;21.48;;;12.40;99.90;;;;;;6343536;22;20383;-94
2021/08/18 19:04:47;;;;;;;82.90;20.17;;;12.40;99.90;;;;;;6342822;22;20907;-94
2021/08/18 19:07:14;;;;;;;52.00;16.42;;;12.20;99.90;;;;;;6342657;22;20394;-94
2021/08/18 19:09:42;;;;;;;83.32;19.05;;;12.00;99.90;;;;;;6343793;22;20386;-93
2021/08/18 19:12:09;;;;;;;93.60;24.73;;;11.90;99.90;;;;;;6342557;22;20378;-95
2021/08/18 19:14:36;;;;;;;155.65;29.60;;;12.00;99.90;;;;;;6342195;22;20389;-95
2021/08/18 19:17:04;;;;;;;104.93;23.77;;;11.90;99.90;;;;;;6342908;22;20379;-92
2021/08/18 19:19:31;;;;;;;103.30;23.57;;;12.10;99.90;;;;;;6342950;22;20383;-92
2021/08/18 19:21:57;;;;;;;89.85;20.63;;;11.80;99.90;;;;;;6342897;22;20390;-93
2021/08/18 19:24:25;;;;;;;89.88;20.63;;;11.80;99.90;;;;;;6342502;22;20390;-93
2021/08/18 19:26:52;;;;;;;79.95;19.08;;;11.60;99.90;;;;;;6342840;22;20395;-93
2021/08/18 19:29:19;;;;;;;141.20;25.58;;;11.60;99.90;;;;;;6342336;22;20372;-95
2021/08/18 19:31:47;;;;;;;146.20;26.67;;;11.70;99.90;;;;;;6343478;22;20391;-92
2021/08/18 19:34:14;;;;;;;153.87;27.20;;;11.70;99.90;;;;;;6342926;22;20382;-95
2021/08/18 19:36:41;;;;;;;113.20;20.92;;;11.80;99.90;;;;;;6343979;22;20380;-93
2021/08/18 19:39:08;;;;;;;110.28;21.10;;;11.70;99.90;;;;;;6342461;22;20466;-93
2021/08/18 19:41:35;;;;;;;129.38;21.23;;;11.70;99.90;;;;;;6342961;22;20386;-95
2021/08/18 19:44:02;;;;;;;128.02;23.00;;;11.70;99.90;;;;;;6342815;22;20851;-93
2021/08/18 19:46:29;;;;;;;146.35;25.95;;;11.60;99.90;;;;;;6342615;22;20395;-94
2021/08/18 19:48:57;;;;;;;115.72;24.98;;;11.50;99.90;;;;;;6342645;22;20385;-94
2021/08/18 19:51:24;;;;;;;150.32;30.92;;;11.60;99.90;;;;;;6343044;22;20383;-94
2021/08/18 19:53:51;;;;;;;171.82;36.10;;;11.60;99.90;;;;;;6344012;22;20385;-93
2021/08/18 19:56:18;;;;;;;183.35;36.40;;;11.60;99.90;;;;;;6344482;22;20720;-92
2021/08/18 19:58:45;;;;;;;171.05;35.83;;;11.80;99.90;;;;;;6343591;22;20784;-93
2021/08/18 20:01:12;;;;;;;169.10;34.97;;;12.00;99.90;;;;;;6345317;22;20382;-94
2021/08/18 20:03:39;;;;;;;176.02;37.33;;;11.90;99.90;;;;;;6361714;22;20382;-94
2021/08/18 20:06:07;;;;;;;189.07;35.67;;;12.10;99.90;;;;;;6356555;22;20417;-94
2021/08/18 20:08:35;;;;;;;140.45;31.77;;;12.10;99.90;;;;;;6344444;22;20445;-95
2021/08/18 20:11:02;;;;;;;133.27;30.57;;;12.20;99.90;;;;;;6344570;22;20379;-94
2021/08/18 20:13:30;;;;;;;115.10;27.87;;;12.10;99.90;;;;;;6344011;22;20379;-92
2021/08/18 20:15:58;;;;;;;98.57;26.80;;;12.20;99.90;;;;;;6343855;22;20470;-93
2021/08/18 20:18:25;;;;;;;100.65;25.48;;;12.30;99.90;;;;;;6345215;22;20379;-95
2021/08/18 20:20:52;;;;;;;104.00;23.92;;;12.30;99.90;;;;;;6344382;22;20386;-94
2021/08/18 20:23:19;;;;;;;128.32;25.45;;;12.20;99.90;;;;;;6344354;22;20375;-94
2021/08/18 20:25:47;;;;;;;118.63;24.25;;;12.20;99.90;;;;;;6344321;22;20390;-95
2021/08/18 20:28:14;;;;;;;98.55;20.38;;;12.20;99.90;;;;;;6344220;22;20463;-96
2021/08/18 20:30:43;;;;;;;122.65;19.80;;;12.30;99.90;;;;;;6343843;22;20379;-94
2021/08/18 20:33:11;;;;;;;132.30;21.20;;;12.30;99.90;;;;;;6344206;22;20383;-93
2021/08/18 20:35:38;;;;;;;133.90;23.70;;;12.40;99.90;;;;;;6343990;22;20469;-93
2021/08/18 20:38:05;;;;;;;114.75;21.88;;;12.20;99.90;;;;;;6344500;22;20367;-93
2021/08/18 20:40:32;;;;;;;138.00;25.23;;;12.20;99.90;;;;;;6344484;22;20693;-95
2021/08/18 20:42:59;;;;;;;111.55;20.98;;;12.00;99.90;;;;;;6343580;22;20379;-94
2021/08/18 20:45:26;;;;;;;165.33;28.90;;;11.80;99.90;;;;;;6344135;22;20379;-93
2021/08/18 20:47:53;;;;;;;150.18;29.42;;;11.70;99.90;;;;;;6343939;22;20398;-94
2021/08/18 20:50:20;;;;;;;182.25;34.08;;;11.70;99.90;;;;;;6344119;22;20376;-94
2021/08/18 20:52:47;;;;;;;142.25;29.95;;;11.50;99.90;;;;;;6343402;22;20386;-94
2021/08/18 20:55:14;;;;;;;145.93;30.77;;;11.60;99.90;;;;;;6344243;22;20375;-93
2021/08/18 20:57:42;;;;;;;166.50;33.05;;;11.80;99.90;;;;;;6343513;22;20393;-93
2021/08/18 21:00:09;;;;;;;209.32;37.63;;;11.80;99.90;;;;;;6344069;22;20379;-93
2021/08/18 21:02:36;;;;;;;212.27;39.25;;;11.80;99.90;;;;;;6343390;22;20386;-94
2021/08/18 21:05:04;;;;;;;198.45;38.00;;;11.80;99.90;;;;;;6343781;22;20848;-93
2021/08/18 21:07:32;;;;;;;187.73;35.85;;;11.90;99.90;;;;;;6343339;22;20399;-93
2021/08/18 21:09:59;;;;;;;158.67;32.10;;;12.00;99.90;;;;;;6343797;22;20379;-95
2021/08/18 21:12:26;;;;;;;153.95;31.00;;;12.00;99.90;;;;;;6344483;22;20476;-94
2021/08/18 21:14:53;;;;;;;182.38;31.13;;;12.00;99.90;;;;;;6343821;22;20456;-95
2021/08/18 21:17:20;;;;;;;150.10;31.60;;;11.90;99.90;;;;;;6343409;22;20375;-93
2021/08/18 21:19:47;;;;;;;189.65;36.28;;;11.90;99.90;;;;;;6343701;22;20387;-94
2021/08/18 21:22:16;;;;;;;195.88;36.25;;;12.00;99.90;;;;;;6343759;22;20462;-93
2021/08/18 21:24:44;;;;;;;143.85;33.67;;;11.90;99.90;;;;;;6344124;22;20877;-93
2021/08/18 21:27:12;;;;;;;129.25;31.17;;;12.00;99.90;;;;;;6343118;22;20383;-93
2021/08/18 21:29:39;;;;;;;145.45;31.83;;;12.10;99.90;;;;;;6343294;22;20700;-94
2021/08/18 21:32:07;;;;;;;128.68;31.48;;;12.20;99.90;;;;;;6344425;22;20662;-94
2021/08/18 21:34:35;;;;;;;111.63;29.30;;;12.20;99.90;;;;;;6343770;22;20839;-94
2021/08/18 21:37:03;;;;;;;128.77;30.40;;;12.10;99.90;;;;;;6344327;22;20379;-94
2021/08/18 21:39:30;;;;;;;153.15;32.05;;;12.10;99.90;;;;;;6344060;22;20546;-94
2021/08/18 21:41:57;;;;;;;117.22;29.27;;;12.10;99.90;;;;;;6343057;22;20390;-93
2021/08/18 21:44:24;;;;;;;123.38;30.45;;;12.20;99.90;;;;;;6348537;22;20415;-93
2021/08/18 21:46:51;;;;;;;133.98;31.20;;;12.20;99.90;;;;;;6365417;22;20753;-93
2021/08/18 21:49:19;;;;;;;144.93;32.15;;;12.10;99.90;;;;;;6345643;22;20396;-94
2021/08/18 21:51:48;;;;;;;125.53;30.70;;;12.10;99.90;;;;;;6343506;22;20375;-93
2021/08/18 21:54:15;;;;;;;99.78;28.85;;;12.10;99.90;;;;;;6343481;22;20463;-93